Time;durP1;ratioP1;P1;durP2;ratioP2;P2;SDS_P1;SDS_P2;PMS_P1;PMS_P2;Temp;Humidity;BMP_temperature;BMP_pressure;BME280_temperature;BME280_humidity;BME280_pressure;Samples;Min_cycle;Max_cycle;Signal;HPM_P1;HPM_P2
2022/12/11 00:01:55;;;;;;;32.60;12.93;;;2.80;99.90;;;;;;5057021;28;20433;-80
2022/12/11 00:04:21;;;;;;;38.27;16.30;;;2.80;99.90;;;;;;5056632;28;20539;-79
2022/12/11 00:06:49;;;;;;;33.53;16.20;;;2.80;99.90;;;;;;5057183;28;20671;-79
2022/12/11 00:09:18;;;;;;;32.93;13.27;;;2.80;99.90;;;;;;5055687;28;20417;-78
2022/12/11 00:11:44;;;;;;;32.60;13.90;;;2.80;99.90;;;;;;5056823;28;20406;-79
2022/12/11 00:14:10;;;;;;;29.60;12.20;;;2.70;99.90;;;;;;5056854;28;20428;-79
2022/12/11 00:16:35;;;;;;;32.60;12.70;;;2.60;99.90;;;;;;5056580;28;20171;-79
2022/12/11 00:19:01;;;;;;;22.13;11.73;;;2.70;99.90;;;;;;5055163;28;20170;-79
2022/12/11 00:21:26;;;;;;;30.97;12.27;;;2.70;99.90;;;;;;5055618;28;20202;-78
2022/12/11 00:23:52;;;;;;;23.90;11.73;;;2.70;99.90;;;;;;5056495;28;20190;-79
2022/12/11 00:26:17;;;;;;;31.53;12.90;;;2.70;99.90;;;;;;5055359;28;20169;-80
2022/12/11 00:28:44;;;;;;;27.43;11.37;;;2.70;99.90;;;;;;5056695;28;20175;-79
2022/12/11 00:31:13;;;;;;;30.07;12.87;;;2.70;99.90;;;;;;5056870;28;20261;-79
2022/12/11 00:33:38;;;;;;;29.20;11.30;;;2.70;99.90;;;;;;5055406;28;20799;-78
2022/12/11 00:36:11;;;;;;;35.43;11.47;;;2.80;99.90;;;;;;5055190;28;20414;-80
2022/12/11 00:38:36;;;;;;;36.47;14.37;;;2.80;99.90;;;;;;5056455;28;20549;-80
2022/12/11 00:41:02;;;;;;;34.00;14.47;;;2.70;99.90;;;;;;5055132;28;20456;-79
2022/12/11 00:43:27;;;;;;;28.90;12.47;;;2.60;99.90;;;;;;5055187;28;20191;-79
2022/12/11 00:45:53;;;;;;;26.67;12.10;;;2.60;99.90;;;;;;5055888;28;20170;-79
2022/12/11 00:48:18;;;;;;;27.40;12.33;;;2.50;99.90;;;;;;5055226;28;20624;-79
2022/12/11 00:50:44;;;;;;;21.30;13.43;;;2.50;99.90;;;;;;5056382;28;20539;-79
2022/12/11 00:53:09;;;;;;;26.70;10.03;;;2.40;99.90;;;;;;5056225;28;20240;-79
2022/12/11 00:55:36;;;;;;;31.47;11.10;;;2.40;99.90;;;;;;5055603;28;20170;-79
2022/12/11 00:58:03;;;;;;;31.40;12.97;;;2.40;99.90;;;;;;5056220;28;20540;-79
2022/12/11 01:00:28;;;;;;;29.23;12.03;;;2.40;99.90;;;;;;5056116;28;20798;-78
2022/12/11 01:02:54;;;;;;;22.90;11.30;;;2.40;99.90;;;;;;5055471;28;20398;-78
2022/12/11 01:05:19;;;;;;;24.80;12.90;;;2.40;99.90;;;;;;5054461;28;20174;-79
2022/12/11 01:07:45;;;;;;;25.50;11.70;;;2.40;99.90;;;;;;5056003;28;20178;-79
2022/12/11 01:10:24;;;;;;;33.57;13.67;;;2.40;99.90;;;;;;5055893;28;20163;-79
2022/12/11 01:12:58;;;;;;;34.03;13.90;;;2.40;99.90;;;;;;5056218;28;20151;-79
2022/12/11 01:15:27;;;;;;;27.40;12.10;;;2.40;99.90;;;;;;5055826;28;20398;-79
2022/12/11 01:17:53;;;;;;;32.13;14.17;;;2.10;99.90;;;;;;5056030;28;20401;-79
2022/12/11 01:20:20;;;;;;;29.13;12.87;;;2.00;99.90;;;;;;5055623;28;20456;-79
2022/12/11 01:22:46;;;;;;;35.03;12.47;;;2.10;99.90;;;;;;5055770;28;20503;-79
2022/12/11 01:25:11;;;;;;;37.43;15.90;;;2.10;99.90;;;;;;5055000;28;20432;-80
2022/12/11 01:27:37;;;;;;;28.43;13.90;;;2.20;99.90;;;;;;5054382;28;20435;-79
2022/12/11 01:30:06;;;;;;;36.63;13.83;;;2.00;99.90;;;;;;5055725;28;20180;-79
2022/12/11 01:32:32;;;;;;;28.97;12.90;;;1.80;99.90;;;;;;5055098;28;20428;-79
2022/12/11 01:34:58;;;;;;;26.20;11.50;;;1.90;99.90;;;;;;5055026;28;20945;-79
2022/12/11 01:37:23;;;;;;;26.53;13.23;;;1.80;99.90;;;;;;5055271;28;20459;-80
2022/12/11 01:39:49;;;;;;;22.87;12.47;;;1.90;99.90;;;;;;5055852;28;20239;-78
2022/12/11 01:42:18;;;;;;;41.67;14.37;;;2.00;99.90;;;;;;5055132;28;20175;-78
2022/12/11 01:44:43;;;;;;;27.20;13.07;;;2.00;99.90;;;;;;5054266;28;20259;-79
2022/12/11 01:47:09;;;;;;;28.73;11.40;;;2.00;99.90;;;;;;5053991;28;20470;-77
2022/12/11 01:49:35;;;;;;;30.90;12.70;;;2.00;99.90;;;;;;5053788;28;20174;-79
2022/12/11 01:52:14;;;;;;;29.30;12.93;;;2.00;99.90;;;;;;5055023;28;20476;-79
2022/12/11 01:54:41;;;;;;;27.33;10.80;;;2.10;99.90;;;;;;5055219;28;20424;-78
2022/12/11 01:57:08;;;;;;;29.23;11.30;;;2.00;99.90;;;;;;5055426;28;20421;-79
2022/12/11 01:59:37;;;;;;;33.37;13.40;;;2.10;99.90;;;;;;5054800;28;20452;-78
2022/12/11 02:02:07;;;;;;;29.27;11.07;;;2.20;99.90;;;;;;5053267;28;20401;-78
2022/12/11 02:04:36;;;;;;;29.53;10.97;;;2.20;99.90;;;;;;5054240;28;20413;-77
2022/12/11 02:07:02;;;;;;;29.23;10.73;;;2.20;99.90;;;;;;5053296;28;20405;-79
2022/12/11 02:09:31;;;;;;;23.50;10.57;;;2.30;99.90;;;;;;5053300;28;20413;-79
2022/12/11 02:12:21;;;;;;;34.83;12.80;;;2.10;99.90;;;;;;5054376;28;20412;-79
2022/12/11 02:15:05;;;;;;;38.50;12.20;;;2.20;99.90;;;;;;5054477;28;20563;-78
2022/12/11 02:17:43;;;;;;;31.53;9.87;;;2.10;99.90;;;;;;5054560;28;20448;-78
2022/12/11 02:20:29;;;;;;;34.77;13.80;;;2.10;99.90;;;;;;5054301;28;20484;-78
2022/12/11 02:23:16;;;;;;;25.23;10.53;;;1.90;99.90;;;;;;5053252;28;21019;-77
2022/12/11 02:26:19;;;;;;;29.10;12.60;;;1.90;99.90;;;;;;5053120;28;20455;-78
2022/12/11 02:28:53;;;;;;;29.57;11.37;;;1.70;99.90;;;;;;5054429;28;20424;-78
2022/12/11 02:31:37;;;;;;;36.87;11.73;;;1.80;99.90;;;;;;5053850;28;20433;-77
2022/12/11 02:34:11;;;;;;;26.90;11.57;;;1.80;99.90;;;;;;5053672;28;20934;-79
2022/12/11 02:36:43;;;;;;;30.10;12.67;;;1.80;99.90;;;;;;5053505;28;20405;-78
2022/12/11 02:39:11;;;;;;;27.03;10.77;;;1.80;99.90;;;;;;5052370;28;20826;-78
2022/12/11 02:41:41;;;;;;;27.47;11.33;;;1.70;99.90;;;;;;5053490;28;20472;-79
2022/12/11 02:44:09;;;;;;;27.87;11.67;;;1.80;99.90;;;;;;5053268;28;20494;-79
2022/12/11 02:46:36;;;;;;;25.83;13.83;;;1.90;99.90;;;;;;5052296;28;20416;-78
2022/12/11 02:49:04;;;;;;;27.10;12.27;;;1.90;99.90;;;;;;5054081;28;20821;-79
2022/12/11 02:51:36;;;;;;;30.53;11.00;;;1.80;99.90;;;;;;5052532;28;20903;-79
2022/12/11 02:54:04;;;;;;;29.17;11.10;;;1.90;99.90;;;;;;5053409;28;20430;-78
2022/12/11 02:56:37;;;;;;;29.33;12.20;;;2.00;99.90;;;;;;5052792;28;20412;-77
2022/12/11 02:59:09;;;;;;;21.37;12.10;;;2.00;99.90;;;;;;5052363;28;20404;-79
2022/12/11 03:01:34;;;;;;;29.60;11.63;;;2.10;99.90;;;;;;5052194;28;20406;-78
2022/12/11 03:04:00;;;;;;;28.77;9.33;;;2.10;99.90;;;;;;5052898;28;20437;-78
2022/12/11 03:06:32;;;;;;;24.83;9.67;;;2.10;99.90;;;;;;5053232;28;20528;-78
2022/12/11 03:08:58;;;;;;;18.50;10.17;;;2.10;99.90;;;;;;5053234;28;20185;-78
2022/12/11 03:11:23;;;;;;;26.77;8.90;;;1.90;99.90;;;;;;5053344;28;20401;-78
2022/12/11 03:13:49;;;;;;;17.60;9.60;;;2.00;99.90;;;;;;5051599;28;20282;-78
2022/12/11 03:16:29;;;;;;;15.27;7.97;;;2.10;99.90;;;;;;5052536;28;20226;-79
2022/12/11 03:19:06;;;;;;;33.80;9.30;;;2.10;99.90;;;;;;5054959;28;20176;-78
2022/12/11 03:21:31;;;;;;;19.90;9.30;;;2.10;99.90;;;;;;5053758;28;20471;-79
2022/12/11 03:24:16;;;;;;;17.23;7.83;;;2.00;99.90;;;;;;5052256;28;20422;-79
2022/12/11 03:26:48;;;;;;;20.97;9.17;;;2.10;99.90;;;;;;5053615;28;20150;-79
2022/12/11 03:29:23;;;;;;;16.77;8.73;;;2.10;99.90;;;;;;5053394;28;20918;-79
2022/12/11 03:31:57;;;;;;;21.27;10.60;;;2.10;99.90;;;;;;5052291;28;20501;-79
2022/12/11 03:34:29;;;;;;;21.13;8.40;;;2.00;99.90;;;;;;5053073;28;20428;-80
2022/12/11 03:36:56;;;;;;;13.90;7.50;;;2.10;99.90;;;;;;5053607;28;20407;-79
2022/12/11 03:39:29;;;;;;;21.50;10.07;;;2.10;99.90;;;;;;5052112;28;21012;-79
2022/12/11 03:41:56;;;;;;;16.50;6.83;;;2.20;99.90;;;;;;5052291;28;20467;-79
2022/12/11 03:44:23;;;;;;;17.70;8.43;;;2.30;99.90;;;;;;5052583;28;20428;-79
2022/12/11 03:46:51;;;;;;;16.47;8.67;;;2.30;99.90;;;;;;5053325;28;20493;-78
2022/12/11 03:49:22;;;;;;;11.10;6.77;;;2.30;99.90;;;;;;5052244;28;20413;-78
2022/12/11 03:51:50;;;;;;;16.57;8.50;;;2.20;99.90;;;;;;5053254;28;20409;-79
2022/12/11 03:54:17;;;;;;;20.50;9.07;;;2.20;99.90;;;;;;5052002;28;20431;-80
2022/12/11 03:56:44;;;;;;;16.10;7.90;;;2.20;99.90;;;;;;5053679;28;20409;-79
2022/12/11 03:59:10;;;;;;;15.03;7.90;;;2.20;99.90;;;;;;5053258;28;20532;-80
2022/12/11 04:01:36;;;;;;;14.33;6.47;;;2.30;99.90;;;;;;5052201;28;20499;-79
2022/12/11 04:04:01;;;;;;;13.67;7.10;;;2.30;99.90;;;;;;5053247;28;20266;-79
2022/12/11 04:06:27;;;;;;;16.03;8.20;;;2.40;99.90;;;;;;5053045;28;20174;-78
2022/12/11 04:08:52;;;;;;;19.97;8.63;;;2.50;99.90;;;;;;5055096;28;20163;-79
2022/12/11 04:11:33;;;;;;;13.47;6.80;;;2.50;99.90;;;;;;5055423;28;20262;-79
2022/12/11 04:16:43;;;;;;;13.83;7.63;;;2.50;99.90;;;;;;5056735;28;20400;-79
2022/12/11 04:24:39;;;;;;;17.27;8.30;;;2.40;99.90;;;;;;5056160;28;20462;-79
2022/12/11 04:27:04;;;;;;;15.57;9.77;;;2.50;99.90;;;;;;5055293;28;20405;-79
2022/12/11 04:29:30;;;;;;;11.70;7.60;;;2.50;99.90;;;;;;5056505;28;20166;-79
2022/12/11 04:31:55;;;;;;;17.10;8.00;;;2.60;99.90;;;;;;5054724;28;20633;-78
2022/12/11 04:34:21;;;;;;;17.30;7.63;;;2.60;99.90;;;;;;5056279;28;20189;-79
2022/12/11 04:36:46;;;;;;;17.97;8.43;;;2.70;99.90;;;;;;5055154;28;20552;-79
2022/12/11 04:39:12;;;;;;;18.27;8.50;;;2.70;99.90;;;;;;5056338;28;20198;-79
2022/12/11 04:41:38;;;;;;;16.30;8.67;;;2.70;99.90;;;;;;5055000;28;20186;-79
2022/12/11 04:44:04;;;;;;;17.53;9.13;;;2.70;99.90;;;;;;5054891;28;20192;-79
2022/12/11 04:46:30;;;;;;;18.67;8.80;;;2.70;99.90;;;;;;5054826;28;20166;-79
2022/12/11 04:48:56;;;;;;;18.37;8.47;;;2.70;99.90;;;;;;5054855;28;20405;-79
2022/12/11 04:51:22;;;;;;;23.07;9.43;;;2.70;99.90;;;;;;5056330;28;20546;-79
2022/12/11 04:53:48;;;;;;;27.13;14.13;;;2.60;99.90;;;;;;5055643;28;20421;-79
2022/12/11 04:56:14;;;;;;;27.23;10.03;;;2.60;99.90;;;;;;5054475;28;20401;-79
2022/12/11 04:58:42;;;;;;;16.73;8.97;;;2.60;99.90;;;;;;5055842;28;20258;-79
2022/12/11 05:01:19;;;;;;;22.93;8.43;;;2.60;99.90;;;;;;5054141;28;20465;-79
2022/12/11 05:03:48;;;;;;;16.33;7.33;;;2.60;99.90;;;;;;5055695;28;20470;-79
2022/12/11 05:06:14;;;;;;;14.73;6.30;;;2.60;99.90;;;;;;5055015;28;20497;-79
2022/12/11 05:08:41;;;;;;;14.57;7.33;;;2.60;99.90;;;;;;5054689;28;20504;-79
2022/12/11 05:11:10;;;;;;;17.03;6.67;;;2.60;99.90;;;;;;5055724;28;20574;-79
2022/12/11 05:13:36;;;;;;;32.70;7.10;;;2.60;99.90;;;;;;5055275;28;20434;-78
2022/12/11 05:16:07;;;;;;;20.77;8.30;;;2.60;99.90;;;;;;5055345;28;20897;-78
2022/12/11 05:18:33;;;;;;;11.50;6.20;;;2.60;99.90;;;;;;5054465;28;20435;-79
2022/12/11 05:21:05;;;;;;;16.10;8.37;;;2.50;99.90;;;;;;5053799;28;20540;-79
2022/12/11 05:23:32;;;;;;;14.20;7.30;;;2.60;99.90;;;;;;5055292;28;20432;-79
2022/12/11 05:26:00;;;;;;;17.80;8.30;;;2.50;99.90;;;;;;5055099;28;20397;-79
2022/12/11 05:28:31;;;;;;;14.83;6.23;;;2.50;99.90;;;;;;5054736;28;20412;-79
2022/12/11 05:30:58;;;;;;;17.63;7.40;;;2.50;99.90;;;;;;5054629;28;20477;-79
2022/12/11 05:33:24;;;;;;;16.63;8.40;;;2.50;99.90;;;;;;5054942;28;20470;-79
2022/12/11 05:35:50;;;;;;;13.77;6.83;;;2.50;99.90;;;;;;5054474;28;20417;-78
2022/12/11 05:38:15;;;;;;;14.53;5.97;;;2.40;99.90;;;;;;5054423;28;20948;-79
2022/12/11 05:40:41;;;;;;;18.53;7.20;;;2.50;99.90;;;;;;5054975;28;20198;-79
2022/12/11 05:43:07;;;;;;;16.30;7.70;;;2.50;99.90;;;;;;5059079;28;20187;-79
2022/12/11 05:45:33;;;;;;;14.53;7.40;;;2.50;99.90;;;;;;5058484;28;20174;-79
2022/12/11 05:48:00;;;;;;;15.27;7.30;;;2.50;99.90;;;;;;5058934;28;20868;-80
2022/12/11 05:50:25;;;;;;;15.13;7.03;;;2.40;99.90;;;;;;5059734;28;20433;-78
2022/12/11 05:52:51;;;;;;;12.90;7.07;;;2.50;99.90;;;;;;5059862;28;20574;-80
2022/12/11 05:55:16;;;;;;;11.80;6.50;;;2.50;99.90;;;;;;5052885;28;20286;-79
2022/12/11 05:57:42;;;;;;;13.57;6.27;;;2.50;99.90;;;;;;5053656;28;20175;-79
2022/12/11 06:00:08;;;;;;;15.63;7.63;;;2.40;99.90;;;;;;5052462;28;20225;-80
2022/12/11 06:02:35;;;;;;;15.53;6.90;;;2.30;99.90;;;;;;5053699;28;20163;-79
2022/12/11 06:05:00;;;;;;;14.83;8.07;;;2.40;99.90;;;;;;5052515;28;20417;-79
2022/12/11 06:07:26;;;;;;;16.80;8.57;;;2.40;99.90;;;;;;5054188;28;20454;-79
2022/12/11 06:09:51;;;;;;;15.83;6.57;;;2.30;99.90;;;;;;5052180;28;20313;-78
2022/12/11 06:12:17;;;;;;;13.93;7.27;;;2.30;99.90;;;;;;5052561;28;20280;-79
2022/12/11 06:14:43;;;;;;;21.83;8.13;;;2.40;99.90;;;;;;5053120;28;20182;-79
2022/12/11 06:17:09;;;;;;;19.33;6.97;;;2.40;99.90;;;;;;5052386;28;20551;-79
2022/12/11 06:19:34;;;;;;;20.80;8.03;;;2.30;99.90;;;;;;5055948;28;20551;-80
2022/12/11 06:22:00;;;;;;;13.03;7.23;;;2.30;99.90;;;;;;5057871;28;20159;-79
2022/12/11 06:24:25;;;;;;;16.40;7.10;;;2.40;99.90;;;;;;5056291;28;20189;-80
2022/12/11 06:26:51;;;;;;;15.10;7.07;;;2.40;99.90;;;;;;5056313;28;20167;-78
2022/12/11 06:29:16;;;;;;;14.93;5.83;;;2.40;99.90;;;;;;5057333;28;20175;-79
2022/12/11 06:31:42;;;;;;;23.57;9.27;;;2.40;99.90;;;;;;5058192;28;20256;-79
2022/12/11 06:34:08;;;;;;;18.30;8.00;;;2.40;99.90;;;;;;5056979;28;20220;-78
2022/12/11 06:36:34;;;;;;;15.97;7.10;;;2.40;99.90;;;;;;5056329;28;20175;-78
2022/12/11 06:38:59;;;;;;;13.20;7.03;;;2.40;99.90;;;;;;5052011;28;20409;-78
2022/12/11 06:41:25;;;;;;;12.70;6.50;;;2.40;99.90;;;;;;5053314;28;20316;-79
2022/12/11 06:43:50;;;;;;;16.20;7.73;;;2.50;99.90;;;;;;5055981;28;20252;-79
2022/12/11 06:46:17;;;;;;;14.77;6.77;;;2.50;99.90;;;;;;5055200;28;20217;-79
2022/12/11 06:48:44;;;;;;;14.97;6.60;;;2.50;99.90;;;;;;5056267;28;20636;-78
2022/12/11 06:51:15;;;;;;;13.33;7.07;;;2.50;99.90;;;;;;5056598;28;20401;-79
2022/12/11 06:53:40;;;;;;;15.30;8.43;;;2.40;99.90;;;;;;5056719;28;20430;-79
2022/12/11 06:56:09;;;;;;;16.23;7.17;;;2.30;99.90;;;;;;5058883;28;20425;-79
2022/12/11 06:58:36;;;;;;;16.33;6.80;;;2.40;99.90;;;;;;5054091;28;20925;-79
2022/12/11 07:01:03;;;;;;;22.87;6.60;;;2.40;99.90;;;;;;5053043;28;20531;-77
2022/12/11 07:03:29;;;;;;;20.37;9.47;;;2.40;99.90;;;;;;5052345;28;20926;-79
2022/12/11 07:05:59;;;;;;;14.07;6.43;;;2.30;99.90;;;;;;5054816;28;20409;-78
2022/12/11 07:08:28;;;;;;;13.10;6.53;;;2.30;99.90;;;;;;5058169;28;20228;-80
2022/12/11 07:10:53;;;;;;;18.20;7.27;;;2.30;99.90;;;;;;5058866;28;20397;-81
2022/12/11 07:13:19;;;;;;;10.90;6.17;;;2.40;99.90;;;;;;5050999;28;20478;-77
2022/12/11 07:15:44;;;;;;;17.80;7.33;;;2.40;99.90;;;;;;5052769;28;20170;-79
2022/12/11 07:18:10;;;;;;;19.20;8.43;;;2.40;99.90;;;;;;5054377;28;20257;-78
2022/12/11 07:20:35;;;;;;;16.50;6.53;;;2.30;99.90;;;;;;5053912;28;20207;-79
2022/12/11 07:23:01;;;;;;;15.93;7.80;;;2.30;99.90;;;;;;5053786;28;20187;-78
2022/12/11 07:25:26;;;;;;;18.70;6.87;;;2.30;99.90;;;;;;5054857;28;20159;-79
2022/12/11 07:27:52;;;;;;;18.33;7.77;;;2.30;99.90;;;;;;5054502;28;20171;-79
2022/12/11 07:30:18;;;;;;;25.10;9.90;;;2.20;99.90;;;;;;5055042;28;20636;-79
2022/12/11 07:32:43;;;;;;;30.60;13.67;;;2.30;99.90;;;;;;5053971;28;20595;-79
2022/12/11 07:35:09;;;;;;;16.17;8.43;;;2.40;99.90;;;;;;5054596;28;20495;-79
2022/12/11 07:37:34;;;;;;;18.30;7.90;;;2.40;99.90;;;;;;5054666;28;20190;-77
2022/12/11 07:40:00;;;;;;;10.47;6.80;;;2.50;99.90;;;;;;5052259;28;20279;-77
2022/12/11 07:42:26;;;;;;;13.20;8.50;;;2.50;99.90;;;;;;5053135;28;20171;-77
2022/12/11 07:44:52;;;;;;;17.73;9.23;;;2.60;99.90;;;;;;5054135;28;20198;-77
2022/12/11 07:47:17;;;;;;;17.37;7.10;;;2.60;99.90;;;;;;5055776;28;20401;-78
2022/12/11 07:49:43;;;;;;;15.70;7.70;;;2.70;99.90;;;;;;5056091;28;20174;-76
2022/12/11 07:52:08;;;;;;;13.57;7.27;;;2.70;99.90;;;;;;5056167;28;20179;-79
2022/12/11 07:54:34;;;;;;;18.73;6.90;;;2.80;99.90;;;;;;5055357;28;20220;-78
2022/12/11 07:57:00;;;;;;;17.30;7.90;;;2.80;99.90;;;;;;5055707;28;20175;-78
2022/12/11 07:59:25;;;;;;;13.30;6.80;;;2.90;99.90;;;;;;5054332;28;20263;-77
2022/12/11 08:01:51;;;;;;;16.20;7.40;;;2.90;99.90;;;;;;5055310;28;20637;-76
2022/12/11 08:04:16;;;;;;;9.70;6.67;;;3.00;99.90;;;;;;5055011;28;20198;-79
2022/12/11 08:06:42;;;;;;;17.07;8.00;;;3.00;99.90;;;;;;5055379;28;20167;-78
2022/12/11 08:09:10;;;;;;;20.80;8.63;;;3.00;99.90;;;;;;5059607;28;20167;-78
2022/12/11 08:11:36;;;;;;;12.40;7.07;;;3.00;99.90;;;;;;5059152;28;20175;-79
2022/12/11 08:14:02;;;;;;;18.73;7.93;;;3.10;99.90;;;;;;5058444;28;20787;-78
2022/12/11 08:16:28;;;;;;;14.87;6.37;;;3.10;99.90;;;;;;5057726;28;20226;-79
2022/12/11 08:18:54;;;;;;;18.53;7.43;;;3.10;99.90;;;;;;5056962;28;20174;-78
2022/12/11 08:21:22;;;;;;;16.57;7.30;;;3.20;99.90;;;;;;5058911;28;20480;-79
2022/12/11 08:23:48;;;;;;;18.03;9.27;;;3.20;99.90;;;;;;5057539;28;20198;-79
2022/12/11 08:26:16;;;;;;;52.47;22.57;;;3.30;99.90;;;;;;5057022;28;20418;-78
2022/12/11 08:28:43;;;;;;;26.10;12.10;;;3.30;99.90;;;;;;5053646;28;20440;-78
2022/12/11 08:31:11;;;;;;;22.00;9.20;;;3.30;99.90;;;;;;5054836;28;20433;-78
2022/12/11 08:33:37;;;;;;;20.17;7.47;;;3.40;99.90;;;;;;5053255;28;20866;-79
2022/12/11 08:36:04;;;;;;;19.53;8.40;;;3.40;99.90;;;;;;5054485;28;20432;-78
2022/12/11 08:38:30;;;;;;;13.83;6.77;;;3.40;99.90;;;;;;5054803;28;20425;-79
2022/12/11 08:40:56;;;;;;;16.67;7.33;;;3.50;99.90;;;;;;5054620;28;20445;-78
2022/12/11 08:43:21;;;;;;;13.73;7.90;;;3.50;99.90;;;;;;5053428;28;20213;-78
2022/12/11 08:45:47;;;;;;;12.83;7.10;;;3.50;99.90;;;;;;5053176;28;20818;-79
2022/12/11 08:48:13;;;;;;;19.70;7.93;;;3.40;99.90;;;;;;5053435;28;20240;-79
2022/12/11 08:50:39;;;;;;;11.30;7.33;;;3.30;99.90;;;;;;5054490;28;20175;-79
2022/12/11 08:53:04;;;;;;;17.40;6.83;;;3.30;99.90;;;;;;5054556;28;20487;-78
2022/12/11 08:55:31;;;;;;;14.87;8.03;;;3.30;99.90;;;;;;5056085;28;20167;-79
2022/12/11 08:57:57;;;;;;;12.23;6.87;;;3.40;99.90;;;;;;5057596;28;20171;-79
2022/12/11 09:00:22;;;;;;;16.73;8.37;;;3.30;99.90;;;;;;5057124;28;20479;-79
2022/12/11 09:02:48;;;;;;;16.77;7.50;;;3.40;99.90;;;;;;5055800;28;20163;-79
2022/12/11 09:05:14;;;;;;;17.13;7.50;;;3.40;99.90;;;;;;5054442;28;20189;-77
2022/12/11 09:07:39;;;;;;;20.03;9.33;;;3.40;99.90;;;;;;5057527;28;20163;-79
2022/12/11 09:10:06;;;;;;;18.63;7.43;;;3.50;99.90;;;;;;5056680;28;20193;-78
2022/12/11 09:12:33;;;;;;;15.00;7.30;;;3.50;99.90;;;;;;5056301;28;20224;-79
2022/12/11 09:14:59;;;;;;;17.07;7.37;;;3.50;99.90;;;;;;5053879;28;20478;-79
2022/12/11 09:17:24;;;;;;;23.33;8.73;;;3.60;99.90;;;;;;5053147;28;20512;-78
2022/12/11 09:19:50;;;;;;;20.93;8.43;;;3.60;99.90;;;;;;5052834;28;20186;-78
2022/12/11 09:22:16;;;;;;;11.97;6.20;;;3.60;99.90;;;;;;5059098;28;20169;-79
2022/12/11 09:24:41;;;;;;;12.60;6.90;;;3.60;99.90;;;;;;5054864;28;20187;-79
2022/12/11 09:27:07;;;;;;;15.70;8.47;;;3.60;99.90;;;;;;5057207;28;20171;-79
2022/12/11 09:29:32;;;;;;;15.67;8.83;;;3.70;99.90;;;;;;5055267;28;20263;-79
2022/12/11 09:31:58;;;;;;;15.90;8.33;;;3.80;99.90;;;;;;5053665;28;20607;-79
2022/12/11 09:34:24;;;;;;;14.50;8.17;;;3.90;99.90;;;;;;5052343;28;20198;-78
2022/12/11 09:36:49;;;;;;;19.23;9.13;;;3.90;99.90;;;;;;5053679;28;20195;-79
2022/12/11 09:39:16;;;;;;;24.37;9.00;;;3.90;99.90;;;;;;5053394;28;20941;-79
2022/12/11 09:42:04;;;;;;;21.00;9.87;;;4.00;99.90;;;;;;5055425;28;20186;-80
2022/12/11 09:44:45;;;;;;;17.93;10.37;;;4.00;99.90;;;;;;5054862;28;20489;-78
2022/12/11 09:47:36;;;;;;;21.63;8.77;;;4.00;99.90;;;;;;5056364;28;20815;-79
2022/12/11 09:50:08;;;;;;;19.23;9.63;;;4.00;99.90;;;;;;5049822;28;20942;-79
2022/12/11 09:52:36;;;;;;;22.40;9.30;;;4.10;99.90;;;;;;5053211;28;20381;-77
2022/12/11 09:55:11;;;;;;;20.67;10.27;;;4.10;99.90;;;;;;5051981;28;20405;-79
2022/12/11 09:57:50;;;;;;;18.23;7.67;;;4.10;99.90;;;;;;5051833;28;20761;-79
2022/12/11 10:00:20;;;;;;;18.20;8.43;;;4.10;99.90;;;;;;5051826;28;20455;-78
2022/12/11 10:03:14;;;;;;;16.67;8.47;;;4.10;99.90;;;;;;5052946;28;20386;-79
2022/12/11 10:06:02;;;;;;;17.27;9.10;;;4.00;99.90;;;;;;5051119;28;20402;-77
2022/12/11 10:09:16;;;;;;;18.73;8.97;;;4.00;99.90;;;;;;5052916;28;20389;-79
2022/12/11 10:11:48;;;;;;;25.07;10.57;;;4.10;99.90;;;;;;5051571;28;20500;-78
2022/12/11 10:14:54;;;;;;;27.97;11.60;;;4.10;99.90;;;;;;5051205;28;20436;-78
2022/12/11 10:17:27;;;;;;;20.07;10.30;;;4.10;99.90;;;;;;5035603;28;20441;-79
2022/12/11 10:19:56;;;;;;;24.83;8.97;;;4.20;99.90;;;;;;5054422;28;21016;-79
2022/12/11 10:22:24;;;;;;;19.57;9.30;;;4.30;99.90;;;;;;5056762;28;20401;-79
2022/12/11 10:25:14;;;;;;;21.77;10.77;;;4.20;99.90;;;;;;5052439;28;20417;-79
2022/12/11 10:27:40;;;;;;;18.07;8.67;;;4.30;99.90;;;;;;5053552;28;20405;-79
2022/12/11 10:30:12;;;;;;;26.13;11.73;;;4.40;99.90;;;;;;5053775;28;20759;-79
2022/12/11 10:33:21;;;;;;;20.33;10.23;;;4.40;99.90;;;;;;5052285;28;20214;-77
2022/12/11 10:35:54;;;;;;;18.40;10.27;;;4.40;99.90;;;;;;5034189;28;20417;-77
2022/12/11 10:38:27;;;;;;;21.83;8.87;;;4.50;99.90;;;;;;5052507;28;20459;-79
2022/12/11 10:41:12;;;;;;;23.77;8.90;;;4.50;99.90;;;;;;5051139;28;20449;-80
2022/12/11 10:43:44;;;;;;;19.83;11.03;;;4.70;99.90;;;;;;5051161;28;20426;-81
2022/12/11 10:46:22;;;;;;;22.03;11.37;;;4.80;99.90;;;;;;5052204;28;20396;-80
2022/12/11 10:48:56;;;;;;;25.20;12.00;;;4.70;99.90;;;;;;5052509;28;20435;-78
2022/12/11 10:51:24;;;;;;;25.93;11.43;;;4.40;99.90;;;;;;5051134;28;20409;-79
2022/12/11 10:53:57;;;;;;;20.20;10.63;;;4.50;99.90;;;;;;5052179;28;20436;-79
2022/12/11 10:56:28;;;;;;;28.70;11.20;;;4.50;99.90;;;;;;5050707;28;20409;-80
2022/12/11 10:58:55;;;;;;;22.33;11.13;;;4.50;99.90;;;;;;5053605;28;20497;-79
2022/12/11 11:01:22;;;;;;;30.57;12.60;;;4.30;99.90;;;;;;5055335;28;20456;-78
2022/12/11 11:04:13;;;;;;;28.77;13.03;;;4.40;99.90;;;;;;5053052;28;21144;-79
2022/12/11 11:06:39;;;;;;;29.33;12.07;;;4.20;99.90;;;;;;5053852;28;20394;-79
2022/12/11 11:09:33;;;;;;;25.40;11.20;;;4.20;99.90;;;;;;5053744;28;20417;-79
2022/12/11 11:11:59;;;;;;;26.90;10.70;;;4.20;99.90;;;;;;5054337;28;20647;-78
2022/12/11 11:14:25;;;;;;;32.83;11.63;;;4.20;99.90;;;;;;5052319;28;20430;-78
2022/12/11 11:16:56;;;;;;;21.30;11.37;;;4.10;99.90;;;;;;5051542;28;20171;-79
2022/12/11 11:19:30;;;;;;;28.80;11.23;;;4.10;99.90;;;;;;5053817;28;20167;-79
2022/12/11 11:22:06;;;;;;;25.80;11.30;;;4.20;99.90;;;;;;5052461;28;20410;-78
2022/12/11 11:25:05;;;;;;;29.33;12.30;;;4.20;99.90;;;;;;5052234;28;20433;-78
2022/12/11 11:27:43;;;;;;;35.77;12.80;;;4.20;99.90;;;;;;5050240;28;20440;-78
2022/12/11 11:30:43;;;;;;;27.07;11.17;;;4.20;99.90;;;;;;5054071;28;20402;-79
2022/12/11 11:33:20;;;;;;;20.23;10.00;;;3.90;99.90;;;;;;5053361;28;20449;-78
2022/12/11 11:36:01;;;;;;;28.57;11.50;;;4.00;99.90;;;;;;5050717;28;20428;-78
2022/12/11 11:38:30;;;;;;;28.67;11.63;;;3.90;99.90;;;;;;5052321;28;20405;-78
2022/12/11 11:41:18;;;;;;;29.63;13.27;;;3.90;99.90;;;;;;5050771;28;20560;-79
2022/12/11 11:43:55;;;;;;;26.13;11.30;;;3.80;99.90;;;;;;5052035;28;20429;-79
2022/12/11 11:46:45;;;;;;;27.07;11.87;;;3.90;99.90;;;;;;5050849;28;20412;-78
2022/12/11 11:49:16;;;;;;;35.83;13.10;;;3.80;99.90;;;;;;5052255;28;20410;-79
2022/12/11 11:52:07;;;;;;;22.93;11.53;;;3.80;99.90;;;;;;5052033;28;20432;-80
2022/12/11 11:54:38;;;;;;;31.20;12.47;;;3.70;99.90;;;;;;5051707;28;20757;-79
2022/12/11 11:57:42;;;;;;;24.83;11.27;;;3.80;99.90;;;;;;5050352;28;20410;-80
2022/12/11 12:00:23;;;;;;;27.23;11.27;;;3.80;99.90;;;;;;5044522;28;20487;-78
2022/12/11 12:02:53;;;;;;;24.57;11.10;;;3.90;99.90;;;;;;5050540;28;20428;-80
2022/12/11 12:05:25;;;;;;;23.47;10.37;;;3.90;99.90;;;;;;5051730;28;20394;-79
2022/12/11 12:08:21;;;;;;;36.27;14.50;;;4.10;99.90;;;;;;5052034;28;20531;-78
2022/12/11 12:10:56;;;;;;;26.57;10.47;;;4.30;99.90;;;;;;5050755;28;20467;-78
2022/12/11 12:13:39;;;;;;;27.80;11.77;;;4.60;99.90;;;;;;5051799;28;20778;-78
2022/12/11 12:16:26;;;;;;;26.40;11.63;;;4.70;99.90;;;;;;5050068;28;20409;-78
2022/12/11 12:19:20;;;;;;;28.93;12.43;;;4.70;99.90;;;;;;5050771;28;20421;-78
2022/12/11 12:21:49;;;;;;;20.93;10.90;;;4.70;99.90;;;;;;5051633;28;20463;-79
2022/12/11 12:24:36;;;;;;;24.17;12.13;;;4.70;99.90;;;;;;5050198;28;20426;-80
2022/12/11 12:27:17;;;;;;;24.90;10.63;;;4.50;99.90;;;;;;5050745;28;20425;-78
2022/12/11 12:30:01;;;;;;;26.07;11.30;;;4.30;99.90;;;;;;5054858;28;20469;-79
2022/12/11 12:32:35;;;;;;;30.20;12.00;;;4.30;99.90;;;;;;5053814;28;20765;-80
2022/12/11 12:35:29;;;;;;;23.10;12.33;;;4.10;99.90;;;;;;5054577;28;20963;-79
2022/12/11 12:38:10;;;;;;;18.90;11.93;;;4.20;99.90;;;;;;5053615;28;20413;-79
2022/12/11 12:40:50;;;;;;;24.07;11.97;;;4.20;99.90;;;;;;5055303;28;20523;-78
2022/12/11 12:43:40;;;;;;;25.70;12.30;;;4.10;99.90;;;;;;5054030;28;20820;-78
2022/12/11 12:46:09;;;;;;;25.23;11.63;;;4.20;99.90;;;;;;5053544;28;20421;-79
2022/12/11 12:48:35;;;;;;;37.93;12.43;;;4.20;99.90;;;;;;5053824;28;20472;-78
2022/12/11 12:51:01;;;;;;;39.17;15.13;;;4.30;99.90;;;;;;5054806;28;21012;-79
2022/12/11 12:53:31;;;;;;;37.83;14.80;;;4.30;99.90;;;;;;5053579;28;20603;-78
2022/12/11 12:55:58;;;;;;;31.10;13.60;;;4.20;99.90;;;;;;5054477;28;20402;-78
2022/12/11 12:58:44;;;;;;;34.40;12.67;;;4.30;99.90;;;;;;5053639;28;21129;-78
2022/12/11 13:01:26;;;;;;;25.93;11.83;;;4.30;99.90;;;;;;5054653;28;20966;-78
2022/12/11 13:04:04;;;;;;;33.47;13.40;;;4.20;99.90;;;;;;5053695;28;20426;-78
2022/12/11 13:06:36;;;;;;;28.03;13.27;;;4.20;99.90;;;;;;5053220;28;20401;-77
2022/12/11 13:09:24;;;;;;;36.90;13.77;;;4.10;99.90;;;;;;5053063;28;20416;-79